Time;durP1;ratioP1;P1;durP2;ratioP2;P2;SDS_P1;SDS_P2;PMS_P1;PMS_P2;Temp;Humidity;BMP_temperature;BMP_pressure;BME280_temperature;BME280_humidity;BME280_pressure;Samples;Min_cycle;Max_cycle;Signal;HPM_P1;HPM_P2
2021/11/25 00:00:59;;;;;;;;;26.25;23.50;;;;;8.62;55.76;101170.19;5098000;27;46127;-80
2021/11/25 00:03:24;;;;;;;;;20.50;19.25;;;;;8.62;55.24;101171.06;5097243;27;46413;-82
2021/11/25 00:05:50;;;;;;;;;26.50;26.00;;;;;8.65;55.54;101160.53;5099387;27;45276;-82
2021/11/25 00:08:17;;;;;;;;;31.25;24.75;;;;;8.66;55.73;101169.25;5099675;27;45237;-82
2021/11/25 00:10:43;;;;;;;;;25.00;22.00;;;;;8.69;55.16;101158.72;5100725;27;46939;-82
2021/11/25 00:13:08;;;;;;;;;27.50;23.25;;;;;8.68;55.47;101151.75;5090671;27;46458;-82
2021/11/25 00:15:34;;;;;;;;;24.00;21.25;;;;;8.65;55.50;101159.66;5100487;27;45408;-82
2021/11/25 00:17:59;;;;;;;;;26.75;24.25;;;;;8.63;55.38;101162.31;5099133;27;45926;-83
2021/11/25 00:20:25;;;;;;;;;25.25;20.75;;;;;8.66;55.72;101169.25;5083386;27;45534;-82
2021/11/25 00:22:51;;;;;;;;;24.75;24.75;;;;;8.65;55.39;101164.91;5098491;27;46164;-82
2021/11/25 00:25:17;;;;;;;;;24.25;22.25;;;;;8.62;55.56;101164.94;5088949;27;45365;-83
2021/11/25 00:27:42;;;;;;;;;26.25;23.25;;;;;8.64;55.29;101168.44;5091693;27;45519;-82
2021/11/25 00:30:10;;;;;;;;;20.25;19.75;;;;;8.63;55.86;101167.56;5093530;27;45489;-82
2021/11/25 00:32:36;;;;;;;;;22.00;20.00;;;;;8.62;56.25;101160.56;5094909;27;45826;-83
2021/11/25 00:35:03;;;;;;;;;23.50;20.75;;;;;8.62;55.27;101154.47;5098904;27;45799;-83
2021/11/25 00:37:28;;;;;;;;;21.25;19.25;;;;;8.61;56.17;101153.63;5099130;27;45476;-83
2021/11/25 00:39:54;;;;;;;;;30.25;26.25;;;;;8.64;55.86;101143.06;5094401;27;45323;-81
2021/11/25 00:42:19;;;;;;;;;27.50;25.50;;;;;8.65;56.06;101149.19;5090612;27;45457;-80
2021/11/25 00:44:45;;;;;;;;;29.25;26.75;;;;;8.65;55.65;101141.31;5100089;27;45400;-80
2021/11/25 00:47:10;;;;;;;;;23.00;21.75;;;;;8.65;56.27;101142.19;5099183;27;45277;-81
2021/11/25 00:49:35;;;;;;;;;27.75;24.25;;;;;8.69;55.97;101134.28;5092645;27;45406;-80
2021/11/25 00:52:01;;;;;;;;;31.50;25.00;;;;;8.67;56.10;101136.91;5096959;27;45376;-80
2021/11/25 00:54:26;;;;;;;;;28.00;21.75;;;;;8.65;56.17;101128.22;5088990;27;45267;-80
2021/11/25 00:56:52;;;;;;;;;25.00;22.00;;;;;8.65;56.32;101130.81;5100193;27;45242;-80
2021/11/25 00:59:17;;;;;;;;;22.25;22.00;;;;;8.63;56.43;101119.50;5099174;27;45329;-80
2021/11/25 01:01:43;;;;;;;;;26.00;22.75;;;;;8.66;56.22;101117.72;5091712;27;46410;-79
2021/11/25 01:04:08;;;;;;;;;27.00;23.75;;;;;8.64;56.73;101111.63;5098547;27;45324;-79
2021/11/25 01:06:34;;;;;;;;;25.25;21.75;;;;;8.65;56.23;101118.59;5100061;27;45414;-79
2021/11/25 01:08:59;;;;;;;;;28.50;27.00;;;;;8.65;56.53;101128.22;5096341;27;45214;-79
2021/11/25 01:11:25;;;;;;;;;29.50;26.00;;;;;8.62;56.08;101130.88;5093786;27;45401;-79
2021/11/25 01:13:52;;;;;;;;;30.50;26.25;;;;;8.59;56.18;101133.56;5090347;27;45291;-79
2021/11/25 01:16:18;;;;;;;;;25.50;23.25;;;;;8.61;55.88;101137.03;5088545;27;45553;-79
2021/11/25 01:18:44;;;;;;;;;27.00;24.25;;;;;8.54;55.96;101141.50;5096147;27;45451;-79
2021/11/25 01:21:09;;;;;;;;;30.50;25.50;;;;;8.57;56.22;101145.81;5098872;27;45329;-79
2021/11/25 01:23:35;;;;;;;;;24.00;20.25;;;;;8.52;55.94;101138.88;5087984;27;45633;-80
2021/11/25 01:26:00;;;;;;;;;28.50;24.75;;;;;8.54;56.79;101129.22;5095592;27;45345;-83
2021/11/25 01:28:27;;;;;;;;;20.50;20.50;;;;;8.57;56.08;101137.97;5089380;27;45314;-90
2021/11/25 01:30:55;;;;;;;;;24.00;20.25;;;;;8.61;55.81;101142.28;5087150;27;48623;-88
2021/11/25 01:33:21;;;;;;;;;27.75;22.75;;;;;8.60;55.84;101140.53;5095048;27;45760;-83
2021/11/25 01:35:47;;;;;;;;;24.50;19.50;;;;;8.58;56.17;101140.56;5103228;27;45282;-83
2021/11/25 01:38:14;;;;;;;;;33.50;24.75;;;;;8.59;56.47;101149.31;5118473;27;47140;-86
2021/11/25 01:40:41;;;;;;;;;23.25;21.50;;;;;8.59;56.06;101146.69;5086776;27;47138;-86
2021/11/25 01:43:07;;;;;;;;;26.50;22.75;;;;;8.59;55.66;101144.94;5100718;27;45465;-86
2021/11/25 01:45:33;;;;;;;;;26.00;23.25;;;;;8.60;55.71;101140.53;5103107;27;45469;-84
2021/11/25 01:47:59;;;;;;;;;21.75;20.25;;;;;8.58;55.69;101137.94;5100572;27;46016;-83
2021/11/25 01:50:30;;;;;;;;;24.00;20.50;;;;;8.59;56.02;101138.81;5102120;27;45534;-84
2021/11/25 01:52:57;;;;;;;;;25.00;23.00;;;;;8.60;55.72;101137.91;5097410;27;45350;-84
2021/11/25 01:55:23;;;;;;;;;24.50;23.75;;;;;8.55;55.34;101130.97;5090701;27;45429;-83
2021/11/25 01:57:51;;;;;;;;;23.75;21.50;;;;;8.59;55.21;101138.81;5100461;27;45204;-84
2021/11/25 02:00:24;;;;;;;;;24.75;22.00;;;;;8.57;54.65;101130.09;5101676;27;46160;-84
2021/11/25 02:02:52;;;;;;;;;22.75;21.25;;;;;8.50;55.03;101122.34;5098889;27;45991;-83
2021/11/25 02:05:17;;;;;;;;;25.00;21.25;;;;;8.46;54.96;101133.75;5102799;27;45299;-84
2021/11/25 02:07:43;;;;;;;;;29.00;27.25;;;;;8.39;55.08;101129.53;5102392;27;45277;-83
2021/11/25 02:10:11;;;;;;;;;27.25;24.25;;;;;8.41;54.62;101122.50;5098674;27;46141;-83
2021/11/25 02:12:36;;;;;;;;;22.75;18.00;;;;;8.40;55.00;101126.00;5092922;27;45385;-83
2021/11/25 02:15:02;;;;;;;;;29.00;25.50;;;;;8.38;55.02;101127.78;5101265;27;45439;-83
2021/11/25 02:17:28;;;;;;;;;26.50;22.25;;;;;8.40;54.80;101128.63;5101821;27;45645;-83
2021/11/25 02:19:56;;;;;;;;;25.50;23.75;;;;;8.39;54.66;101134.75;5095849;27;46154;-83
2021/11/25 02:22:21;;;;;;;;;26.25;24.00;;;;;8.35;54.62;101126.06;5088756;27;45196;-80
2021/11/25 02:24:50;;;;;;;;;21.00;19.50;;;;;8.38;55.07;101128.66;5102446;27;45206;-80
2021/11/25 02:27:20;;;;;;;;;28.00;22.75;;;;;8.36;54.50;101119.97;5086985;27;45313;-80
2021/11/25 02:29:45;;;;;;;;;24.25;21.75;;;;;8.35;54.96;101117.34;5098206;27;45352;-80
2021/11/25 02:32:11;;;;;;;;;25.00;19.75;;;;;8.32;54.07;101127.00;5088523;27;45665;-80
2021/11/25 02:34:36;;;;;;;;;30.00;22.50;;;;;8.32;54.76;101115.69;5096181;27;45420;-80
2021/11/25 02:37:01;;;;;;;;;21.75;19.50;;;;;8.32;55.39;101120.91;5097313;27;45499;-80
2021/11/25 02:39:27;;;;;;;;;25.75;19.00;;;;;8.35;54.61;101125.22;5081570;27;46578;-80
2021/11/25 02:41:52;;;;;;;;;20.75;19.25;;;;;8.37;54.00;101118.22;5086612;27;45192;-82
2021/11/25 02:44:18;;;;;;;;;16.75;16.75;;;;;8.38;53.46;101110.31;5095431;27;45350;-82
2021/11/25 02:46:50;;;;;;;;;17.50;16.25;;;;;8.39;53.74;101114.69;5100921;27;45600;-83
2021/11/25 02:49:15;;;;;;;;;20.25;17.00;;;;;8.38;54.06;101119.94;5094944;27;45610;-82
2021/11/25 02:51:40;;;;;;;;;18.00;17.00;;;;;8.41;53.98;101112.03;5093996;27;45281;-82
2021/11/25 02:54:06;;;;;;;;;21.75;18.25;;;;;8.43;54.26;101111.09;5102154;27;45152;-83
2021/11/25 02:56:31;;;;;;;;;18.75;17.50;;;;;8.43;54.03;101111.09;5094234;27;45458;-82
2021/11/25 02:59:00;;;;;;;;;20.00;16.00;;;;;8.43;54.33;101107.63;5093855;27;46333;-82
2021/11/25 03:01:32;;;;;;;;;18.50;18.50;;;;;8.43;52.77;101108.47;5097164;27;45460;-83
2021/11/25 03:04:00;;;;;;;;;22.25;16.75;;;;;8.41;53.52;101109.41;5101783;27;45216;-82
2021/11/25 03:06:26;;;;;;;;;24.50;19.25;;;;;8.39;52.29;101105.94;5097382;27;45490;-83
2021/11/25 03:08:51;;;;;;;;;15.75;14.00;;;;;8.35;52.96;101112.97;5100262;27;46301;-83
2021/11/25 03:11:20;;;;;;;;;20.25;18.25;;;;;8.38;53.37;101117.31;5092536;27;45476;-83
2021/11/25 03:13:51;;;;;;;;;18.00;17.00;;;;;8.38;53.43;101109.44;5097677;27;45226;-83
2021/11/25 03:16:17;;;;;;;;;18.50;17.50;;;;;8.38;53.38;101104.22;5099015;27;45432;-82
2021/11/25 03:18:43;;;;;;;;;17.00;17.00;;;;;8.39;53.36;101104.19;5095137;27;46135;-83
2021/11/25 03:21:10;;;;;;;;;23.00;18.00;;;;;8.43;53.60;101092.75;5092358;27;45255;-81
2021/11/25 03:23:37;;;;;;;;;19.75;17.75;;;;;8.42;52.72;101096.25;5098587;27;45257;-80
2021/11/25 03:26:05;;;;;;;;;22.25;21.25;;;;;8.43;53.01;101091.91;5091299;27;45394;-80
2021/11/25 03:28:31;;;;;;;;;19.50;15.00;;;;;8.43;53.39;101097.13;5096288;27;45490;-80
2021/11/25 03:30:57;;;;;;;;;20.50;20.25;;;;;8.43;53.38;101089.28;5084743;27;45364;-80
2021/11/25 03:33:32;;;;;;;;;21.25;21.25;;;;;8.44;53.33;101096.25;5091759;27;45424;-80
2021/11/25 03:36:01;;;;;;;;;25.50;19.50;;;;;8.38;53.42;101089.38;5092479;27;45396;-80
2021/11/25 03:38:27;;;;;;;;;24.25;19.75;;;;;8.38;53.26;101085.88;5098940;27;46441;-80
2021/11/25 03:40:54;;;;;;;;;20.75;18.75;;;;;8.38;53.22;101096.34;5094464;27;45821;-80
2021/11/25 03:43:19;;;;;;;;;20.50;17.50;;;;;8.35;53.86;101088.53;5085823;27;45285;-80
2021/11/25 03:45:45;;;;;;;;;21.50;20.00;;;;;8.33;54.15;101076.34;5091776;27;45389;-80
2021/11/25 03:48:10;;;;;;;;;26.00;22.50;;;;;8.35;53.89;101084.16;5099475;27;45345;-80
2021/11/25 03:50:36;;;;;;;;;21.25;19.25;;;;;8.34;53.91;101092.94;5088892;27;45387;-80
2021/11/25 03:53:02;;;;;;;;;28.00;24.75;;;;;8.35;53.98;101099.00;5099271;27;45331;-81
2021/11/25 03:55:28;;;;;;;;;18.25;16.50;;;;;8.32;54.03;101089.50;5092000;27;45478;-78
2021/11/25 03:57:53;;;;;;;;;24.75;23.50;;;;;8.28;53.90;101096.53;5100531;27;46637;-78
2021/11/25 04:00:22;;;;;;;;;25.75;19.50;;;;;8.29;54.11;101089.53;5097832;27;45290;-78
2021/11/25 04:02:50;;;;;;;;;24.00;23.00;;;;;8.32;54.34;101095.56;5082489;27;45212;-78
2021/11/25 04:05:16;;;;;;;;;26.25;20.75;;;;;8.36;54.26;101090.28;5092986;27;45389;-78
2021/11/25 04:07:42;;;;;;;;;19.50;19.50;;;;;8.38;54.14;101093.72;5100439;27;46400;-78
2021/11/25 04:10:09;;;;;;;;;27.25;25.50;;;;;8.36;54.41;101091.16;5097891;27;45483;-78
2021/11/25 04:12:35;;;;;;;;;27.00;26.25;;;;;8.36;54.48;101091.16;5088419;27;45234;-79
2021/11/25 04:15:00;;;;;;;;;27.75;24.00;;;;;8.38;54.97;101099.84;5100558;27;45488;-79
2021/11/25 04:17:26;;;;;;;;;24.00;19.75;;;;;8.40;54.50;101092.81;5100136;27;45280;-79
2021/11/25 04:19:52;;;;;;;;;20.00;18.00;;;;;8.47;54.88;101105.81;5097035;27;45467;-80
2021/11/25 04:22:21;;;;;;;;;24.00;19.25;;;;;8.50;54.63;101092.63;5098755;27;45159;-80
2021/11/25 04:24:49;;;;;;;;;26.25;20.75;;;;;8.51;54.16;101095.25;5100449;27;45267;-83
2021/11/25 04:27:16;;;;;;;;;24.00;22.25;;;;;8.48;54.16;101095.31;5100220;27;46353;-83
2021/11/25 04:29:44;;;;;;;;;27.75;20.75;;;;;8.47;54.79;101085.69;5092574;27;45795;-82
2021/11/25 04:37:40;;;;;;;;;30.25;24.00;;;;;8.38;54.60;101085.88;5099921;27;45550;-83
2021/11/25 04:40:07;;;;;;;;;24.50;22.00;;;;;8.34;55.07;101085.09;5090089;27;45324;-84
2021/11/25 04:42:32;;;;;;;;;28.50;25.75;;;;;8.32;55.21;101079.84;5083110;27;45477;-84
2021/11/25 04:44:57;;;;;;;;;24.50;23.50;;;;;8.31;54.77;101093.84;5097641;27;46575;-87
2021/11/25 04:47:23;;;;;;;;;22.00;20.50;;;;;8.27;54.28;101092.16;5100098;27;45495;-87
2021/11/25 04:49:48;;;;;;;;;22.00;22.00;;;;;8.24;54.38;101086.13;5092891;27;45313;-80
2021/11/25 04:52:14;;;;;;;;;23.50;20.25;;;;;8.18;54.71;101085.34;5081815;27;45539;-79
2021/11/25 04:54:39;;;;;;;;;27.75;24.00;;;;;8.12;55.18;101077.59;5095651;27;45399;-80
2021/11/25 04:57:05;;;;;;;;;24.50;24.25;;;;;8.12;55.31;101081.97;5097686;27;45392;-79
2021/11/25 04:59:31;;;;;;;;;25.00;24.00;;;;;8.09;55.72;101086.38;5094768;27;45197;-83
2021/11/25 05:01:56;;;;;;;;;33.00;26.75;;;;;8.05;55.17;101079.44;5095439;27;45177;-80
2021/11/25 05:04:22;;;;;;;;;31.75;25.50;;;;;8.02;56.25;101076.91;5103542;27;45518;-80
2021/11/25 05:06:47;;;;;;;;;31.75;26.25;;;;;7.99;55.89;101076.94;5102439;27;45411;-79
2021/11/25 05:09:13;;;;;;;;;24.25;22.75;;;;;7.95;56.66;101076.13;5101238;27;45221;-81
2021/11/25 05:11:39;;;;;;;;;39.50;32.00;;;;;7.92;56.83;101076.19;5089523;27;47086;-79
2021/11/25 05:14:05;;;;;;;;;47.00;36.25;;;;;7.88;57.53;101080.59;5102086;27;45522;-79
2021/11/25 05:16:30;;;;;;;;;49.25;36.25;;;;;7.84;57.85;101083.28;5103211;27;45360;-79
2021/11/25 05:18:55;;;;;;;;;40.00;34.75;;;;;7.78;57.43;101086.84;5098831;27;45599;-80
2021/11/25 05:21:21;;;;;;;;;45.75;38.00;;;;;7.75;58.03;101079.06;5100126;27;45402;-82
2021/11/25 05:23:46;;;;;;;;;48.25;37.50;;;;;7.70;58.65;101080.91;5102941;27;45258;-82
2021/11/25 05:26:12;;;;;;;;;50.75;37.25;;;;;7.68;58.43;101075.66;5089666;27;45419;-81
2021/11/25 05:28:37;;;;;;;;;45.75;38.00;;;;;7.71;58.58;101082.59;5100041;27;45297;-82
2021/11/25 05:31:03;;;;;;;;;49.00;39.00;;;;;7.69;58.16;101081.78;5091911;27;45366;-82
2021/11/25 05:33:28;;;;;;;;;42.25;36.75;;;;;7.71;58.58;101087.84;5105171;27;45952;-81
2021/11/25 05:35:54;;;;;;;;;49.25;39.75;;;;;7.68;58.83;101093.97;5093706;27;47106;-81
2021/11/25 05:38:19;;;;;;;;;52.00;39.00;;;;;7.65;58.83;101097.50;5098418;27;45334;-81
2021/11/25 05:40:45;;;;;;;;;51.50;41.75;;;;;7.58;59.03;101098.47;5097509;27;46222;-81
2021/11/25 05:43:11;;;;;;;;;56.75;40.00;;;;;7.54;59.54;101091.56;5087197;27;45442;-81
2021/11/25 05:45:37;;;;;;;;;52.00;39.75;;;;;7.48;59.21;101091.69;5097333;27;46391;-81
2021/11/25 05:48:02;;;;;;;;;50.50;40.00;;;;;7.46;59.40;101096.06;5099818;27;45288;-81
2021/11/25 05:50:28;;;;;;;;;54.75;41.75;;;;;7.42;59.29;101103.94;5089733;27;45490;-81
2021/11/25 05:52:57;;;;;;;;;51.25;39.00;;;;;7.46;59.45;101122.22;5099197;27;45306;-81
2021/11/25 05:55:27;;;;;;;;;52.75;39.00;;;;;7.43;60.10;101123.97;5096574;27;46777;-81
2021/11/25 05:57:53;;;;;;;;;43.50;36.00;;;;;7.40;59.76;101118.81;5095017;27;45719;-81
2021/11/25 06:00:19;;;;;;;;;55.00;42.50;;;;;7.36;59.56;101114.47;5091884;27;45385;-83
2021/11/25 06:02:47;;;;;;;;;49.75;36.25;;;;;7.32;59.68;101118.03;5096897;27;47294;-84
2021/11/25 06:05:15;;;;;;;;;52.50;42.25;;;;;7.30;59.90;101128.53;5102480;27;46401;-84
2021/11/25 06:07:45;;;;;;;;;56.75;41.75;;;;;7.31;60.12;101129.38;5100966;27;45292;-85
2021/11/25 06:10:12;;;;;;;;;60.25;43.25;;;;;7.27;59.96;101125.06;5092593;27;45402;-85
2021/11/25 06:12:38;;;;;;;;;59.75;44.25;;;;;7.29;60.34;101136.38;5090761;27;46278;-84
2021/11/25 06:15:05;;;;;;;;;52.75;41.25;;;;;7.27;59.90;101143.38;5099615;27;45441;-90
2021/11/25 06:17:30;;;;;;;;;54.25;42.75;;;;;7.21;60.04;101146.91;5101710;27;45804;-88
2021/11/25 06:19:56;;;;;;;;;56.25;42.75;;;;;7.19;60.20;101144.34;5095729;27;45449;-91
2021/11/25 06:22:23;;;;;;;;;53.00;43.00;;;;;7.17;60.75;101130.41;5096475;27;45985;-90
2021/11/25 06:24:49;;;;;;;;;54.25;41.75;;;;;7.13;60.55;101136.56;5100564;27;48663;-90
2021/11/25 06:27:15;;;;;;;;;59.00;45.00;;;;;7.06;60.88;101132.31;5100890;27;45711;-90
2021/11/25 06:29:40;;;;;;;;;58.00;42.75;;;;;7.06;61.00;101140.16;5101155;27;45504;-91
2021/11/25 06:32:06;;;;;;;;;55.75;42.25;;;;;7.09;60.98;101142.72;5098772;27;45551;-90
2021/11/25 06:34:31;;;;;;;;;53.75;42.25;;;;;7.06;60.95;101142.75;5093898;27;46168;-91
2021/11/25 06:36:57;;;;;;;;;57.50;45.00;;;;;7.05;60.92;101141.03;5094587;27;45402;-91
2021/11/25 06:39:22;;;;;;;;;57.50;45.75;;;;;7.03;61.04;101148.91;5100973;27;45305;-90
2021/11/25 06:41:48;;;;;;;;;56.00;44.75;;;;;7.01;61.16;101150.66;5099573;27;45969;-91
2021/11/25 06:44:13;;;;;;;;;57.00;44.50;;;;;7.02;60.49;101151.50;5100569;27;47243;-88
2021/11/25 06:46:39;;;;;;;;;62.50;44.50;;;;;7.01;60.58;101145.44;5096292;27;45700;-90
2021/11/25 06:49:04;;;;;;;;;54.50;44.00;;;;;7.01;61.21;101144.56;5100606;27;45226;-90
2021/11/25 06:51:30;;;;;;;;;56.50;43.50;;;;;6.98;60.81;101148.94;5099617;27;47115;-90
2021/11/25 06:53:55;;;;;;;;;54.25;43.00;;;;;6.94;61.18;101149.84;5092062;27;46291;-90
2021/11/25 06:56:22;;;;;;;;;57.00;44.25;;;;;6.90;61.02;101153.38;5090458;27;45334;-90
2021/11/25 06:58:49;;;;;;;;;59.75;46.00;;;;;6.85;61.00;101157.78;5097692;27;45433;-89
2021/11/25 07:01:15;;;;;;;;;58.25;44.25;;;;;6.79;60.80;101160.47;5097370;27;46093;-90
2021/11/25 07:03:41;;;;;;;;;62.00;45.00;;;;;6.75;60.60;101162.25;5099756;27;47096;-90
2021/11/25 07:06:06;;;;;;;;;60.50;45.50;;;;;6.69;60.98;101170.16;5093362;27;45767;-90
2021/11/25 07:08:32;;;;;;;;;58.25;44.00;;;;;6.64;61.23;101170.19;5112067;27;45553;-89
2021/11/25 07:10:58;;;;;;;;;53.50;44.50;;;;;6.56;61.31;101170.28;5106014;27;46127;-89
2021/11/25 07:13:25;;;;;;;;;53.75;43.00;;;;;6.51;61.52;101178.16;5113345;27;46427;-90
2021/11/25 07:15:50;;;;;;;;;59.25;46.75;;;;;6.49;61.51;101185.13;5101508;27;45233;-90
2021/11/25 07:18:15;;;;;;;;;65.25;47.50;;;;;6.47;61.55;101186.88;5115320;27;45218;-90
2021/11/25 07:20:41;;;;;;;;;64.00;47.75;;;;;6.45;61.75;101180.78;5090626;27;45483;-90
2021/11/25 07:23:06;;;;;;;;;62.75;45.50;;;;;6.44;61.31;101178.22;5097321;27;45463;-90
2021/11/25 07:25:31;;;;;;;;;62.75;49.25;;;;;6.42;61.74;101183.44;5087534;27;45369;-90
2021/11/25 07:27:57;;;;;;;;;57.00;45.75;;;;;6.39;61.79;101183.47;5109565;27;45258;-90
2021/11/25 07:30:23;;;;;;;;;62.00;48.50;;;;;6.37;61.50;101182.63;5097556;27;45863;-90
2021/11/25 07:32:49;;;;;;;;;63.75;47.50;;;;;6.36;61.58;101189.59;5094406;27;46431;-90
2021/11/25 07:35:19;;;;;;;;;61.25;48.00;;;;;6.39;61.96;101199.13;5089521;27;45486;-91
2021/11/25 07:37:44;;;;;;;;;60.50;45.25;;;;;6.38;62.32;101197.41;5094566;27;45533;-90
2021/11/25 07:40:09;;;;;;;;;64.25;46.75;;;;;6.39;62.44;101199.13;5106308;27;45213;-90
2021/11/25 07:42:35;;;;;;;;;63.75;48.25;;;;;6.41;62.27;101213.03;5099831;27;48166;-91
2021/11/25 07:45:01;;;;;;;;;60.00;49.25;;;;;6.38;62.10;101211.31;5113546;27;45215;-90
2021/11/25 07:47:33;;;;;;;;;54.00;42.75;;;;;6.39;62.06;101210.47;5101204;27;45199;-91
2021/11/25 07:50:08;;;;;;;;;62.00;48.00;;;;;6.42;62.54;101230.44;5093615;27;47297;-90
2021/11/25 07:52:33;;;;;;;;;61.00;46.75;;;;;6.41;62.40;101220.88;5100842;27;46231;-90
2021/11/25 07:54:59;;;;;;;;;64.00;50.50;;;;;6.41;62.72;101228.72;5098202;27;45436;-90
2021/11/25 07:57:26;;;;;;;;;64.50;48.25;;;;;6.43;62.50;101229.56;5095585;27;45225;-90
2021/11/25 07:59:51;;;;;;;;;61.50;47.25;;;;;6.42;62.35;101240.88;5100855;27;45257;-90
2021/11/25 08:02:19;;;;;;;;;61.50;47.00;;;;;6.39;62.81;101249.63;5099530;27;45364;-89
2021/11/25 08:04:44;;;;;;;;;65.00;47.75;;;;;6.38;62.64;101242.66;5100584;27;45883;-88
2021/11/25 08:07:10;;;;;;;;;61.50;48.00;;;;;6.41;62.89;101242.66;5100690;27;45407;-88
2021/11/25 08:09:35;;;;;;;;;57.25;46.00;;;;;6.43;62.09;101247.84;5100723;27;45318;-88
2021/11/25 08:12:00;;;;;;;;;56.25;44.50;;;;;6.41;62.60;101244.38;5096150;27;45476;-88
2021/11/25 08:14:26;;;;;;;;;62.25;46.75;;;;;6.41;62.49;101249.59;5100394;27;45657;-88
2021/11/25 08:16:54;;;;;;;;;60.00;46.50;;;;;6.43;62.81;101255.69;5098595;27;45353;-88
2021/11/25 08:19:19;;;;;;;;;55.25;45.25;;;;;6.43;62.84;101260.91;5100534;27;45294;-87
2021/11/25 08:21:45;;;;;;;;;61.00;46.25;;;;;6.43;62.81;101247.84;5097876;27;47304;-90
2021/11/25 08:24:10;;;;;;;;;66.25;50.00;;;;;6.45;63.21;101260.88;5098980;27;45249;-92
2021/11/25 08:26:36;;;;;;;;;64.00;49.50;;;;;6.47;62.77;101265.22;5100765;27;45472;-89
2021/11/25 08:29:01;;;;;;;;;58.00;47.00;;;;;6.46;63.40;101258.28;5100585;27;45205;-90
2021/11/25 08:31:28;;;;;;;;;62.25;47.50;;;;;6.44;63.04;101260.03;5092042;27;45288;-90
2021/11/25 08:33:53;;;;;;;;;59.50;45.50;;;;;6.48;63.28;101258.25;5098920;27;45364;-90
2021/11/25 08:36:18;;;;;;;;;64.50;47.00;;;;;6.51;63.13;101272.16;5099474;27;45487;-90
2021/11/25 08:38:44;;;;;;;;;59.75;46.75;;;;;6.55;63.38;101272.13;5113299;27;45352;-90
2021/11/25 08:41:10;;;;;;;;;63.50;48.25;;;;;6.55;63.30;101265.16;5100154;27;45428;-87
2021/11/25 08:43:35;;;;;;;;;57.25;45.75;;;;;6.61;63.05;101265.13;5090319;27;45408;-86
2021/11/25 08:46:01;;;;;;;;;56.25;46.25;;;;;6.64;62.89;101261.63;5083005;27;45464;-90
2021/11/25 08:48:26;;;;;;;;;57.50;45.25;;;;;6.69;62.81;101269.44;5085325;27;46211;-88
2021/11/25 08:50:52;;;;;;;;;62.25;48.00;;;;;6.71;62.87;101262.44;5091333;27;47186;-87
2021/11/25 08:53:19;;;;;;;;;54.75;46.00;;;;;6.75;63.03;101264.13;5099392;27;45495;-89
2021/11/25 08:55:44;;;;;;;;;56.00;44.50;;;;;6.79;63.03;101254.53;5100185;27;45182;-89
2021/11/25 08:58:10;;;;;;;;;56.00;44.00;;;;;6.80;62.66;101256.25;5097227;27;45981;-89
2021/11/25 09:00:35;;;;;;;;;55.75;44.25;;;;;6.83;62.68;101256.25;5098520;27;47176;-91
2021/11/25 09:03:02;;;;;;;;;58.00;42.50;;;;;6.86;62.72;101251.00;5102756;27;45246;-91
2021/11/25 09:05:29;;;;;;;;;61.75;46.50;;;;;6.90;62.77;101244.84;5098706;27;45266;-90
2021/11/25 09:07:55;;;;;;;;;59.50;47.00;;;;;6.88;62.80;101254.47;5097472;27;45473;-90
2021/11/25 09:10:20;;;;;;;;;58.00;45.50;;;;;6.94;62.71;101254.38;5095819;27;46376;-90
2021/11/25 09:12:46;;;;;;;;;59.00;44.75;;;;;6.96;62.83;101252.63;5092752;27;45822;-91
2021/11/25 09:15:12;;;;;;;;;54.75;43.50;;;;;6.98;62.56;101253.50;5105682;27;45440;-91
2021/11/25 09:17:37;;;;;;;;;66.00;46.00;;;;;6.96;62.25;101247.38;5111996;27;46278;-91
2021/11/25 09:20:07;;;;;;;;;61.25;48.50;;;;;6.96;62.63;101252.63;5098593;27;47299;-90
2021/11/25 09:22:32;;;;;;;;;56.75;46.00;;;;;6.95;62.68;101245.69;5086486;27;45212;-89
2021/11/25 09:24:58;;;;;;;;;57.50;44.75;;;;;6.98;62.65;101247.41;5099993;27;45156;-90
2021/11/25 09:27:23;;;;;;;;;57.00;46.00;;;;;6.97;62.25;101240.41;5102050;27;46064;-90
2021/11/25 09:29:49;;;;;;;;;62.00;47.00;;;;;7.04;62.86;101243.84;5099619;27;46394;-90
2021/11/25 09:32:14;;;;;;;;;63.00;48.25;;;;;7.10;62.67;101233.34;5085738;27;45312;-90
2021/11/25 09:34:40;;;;;;;;;66.75;49.50;;;;;7.14;62.29;101234.16;5099990;27;45376;-90
2021/11/25 09:37:06;;;;;;;;;57.75;44.50;;;;;7.23;62.13;101243.66;5098183;27;45573;-90
2021/11/25 09:39:32;;;;;;;;;62.50;45.75;;;;;7.25;61.59;101234.03;5100988;27;47467;-90
2021/11/25 09:41:58;;;;;;;;;56.75;43.00;;;;;7.29;61.75;101238.34;5110314;27;45447;-90
2021/11/25 09:44:23;;;;;;;;;52.00;38.00;;;;;7.37;61.49;101243.50;5100190;27;45431;-90
2021/11/25 09:46:53;;;;;;;;;62.25;48.50;;;;;7.41;61.38;101238.22;5102900;27;45241;-90
2021/11/25 09:49:24;;;;;;;;;64.00;47.25;;;;;7.46;61.44;101242.53;5103124;27;45462;-90
2021/11/25 09:51:50;;;;;;;;;55.25;44.25;;;;;7.48;60.82;101232.94;5102891;27;45291;-90
2021/11/25 09:54:16;;;;;;;;;58.50;47.50;;;;;7.51;61.28;101230.25;5103161;27;45519;-90
2021/11/25 09:56:42;;;;;;;;;58.50;45.50;;;;;7.58;60.94;101231.91;5102974;27;45302;-89
2021/11/25 09:59:07;;;;;;;;;65.00;49.75;;;;;7.62;60.98;101232.75;5102992;27;45547;-90
2021/11/25 10:01:34;;;;;;;;;60.00;47.50;;;;;7.61;60.71;101239.72;5101385;27;45214;-90
2021/11/25 10:04:00;;;;;;;;;60.25;45.50;;;;;7.67;60.91;101240.53;5101733;27;45340;-90
2021/11/25 10:06:37;;;;;;;;;68.00;50.25;;;;;7.71;60.58;101247.44;5102711;27;45424;-89
2021/11/25 10:09:04;;;;;;;;;67.50;50.00;;;;;7.76;60.85;101251.75;5101327;27;47082;-90
2021/11/25 10:11:35;;;;;;;;;65.25;48.50;;;;;7.80;60.49;101249.97;5102816;27;45806;-90
2021/11/25 10:14:07;;;;;;;;;57.25;46.25;;;;;7.88;60.17;101249.84;5103079;27;45312;-90
2021/11/25 10:16:40;;;;;;;;;66.75;51.00;;;;;7.94;60.20;101252.41;5115699;27;45513;-90
2021/11/25 10:19:16;;;;;;;;;62.25;47.25;;;;;7.95;59.53;101240.19;5101117;27;47671;-91
2021/11/25 10:21:53;;;;;;;;;62.50;48.25;;;;;8.00;60.10;101238.34;5101204;27;45267;-90
2021/11/25 10:24:42;;;;;;;;;60.75;46.50;;;;;8.02;60.02;101239.22;5101361;27;45594;-90
2021/11/25 10:27:26;;;;;;;;;64.75;49.25;;;;;8.10;60.04;101241.69;5102771;27;45262;-91
2021/11/25 10:30:17;;;;;;;;;59.75;46.50;;;;;8.14;59.30;101239.91;5102054;27;45517;-90
2021/11/25 10:32:56;;;;;;;;;59.25;46.25;;;;;8.13;59.25;101232.94;5118057;27;45240;-90
2021/11/25 10:35:26;;;;;;;;;53.50;43.00;;;;;8.18;59.27;101228.50;5101211;27;45402;-91
2021/11/25 10:38:09;;;;;;;;;60.50;43.75;;;;;8.18;59.05;101224.13;5077967;27;45467;-90
2021/11/25 10:40:36;;;;;;;;;62.75;48.25;;;;;8.27;58.93;101236.19;5061428;28;45392;-90
2021/11/25 10:43:22;;;;;;;;;66.25;49.00;;;;;8.36;59.14;101232.59;5061670;28;45782;-91
2021/11/25 10:45:50;;;;;;;;;56.50;42.75;;;;;8.39;58.73;101232.56;5067601;28;45248;-90
2021/11/25 10:48:51;;;;;;;;;54.75;44.00;;;;;8.49;58.48;101233.28;5066959;28;45436;-90
2021/11/25 10:51:27;;;;;;;;;56.50;44.75;;;;;8.54;58.92;101222.72;5060891;28;45329;-91
2021/11/25 10:54:08;;;;;;;;;57.25;44.00;;;;;8.64;57.80;101226.09;5064367;28;45238;-90
2021/11/25 10:56:39;;;;;;;;;57.25;46.75;;;;;8.68;57.59;101217.25;5068517;27;45424;-91
2021/11/25 10:59:06;;;;;;;;;56.25;45.00;;;;;8.78;58.14;101218.84;5059878;28;46065;-91
2021/11/25 11:01:37;;;;;;;;;60.75;48.25;;;;;8.82;58.20;101213.53;5059499;28;46993;-90
2021/11/25 11:04:03;;;;;;;;;57.25;45.00;;;;;8.86;57.42;101207.34;5059915;28;45827;-90
2021/11/25 11:06:35;;;;;;;;;56.50;44.00;;;;;8.93;57.38;101211.59;5061170;28;45235;-91
2021/11/25 11:09:01;;;;;;;;;55.25;42.50;;;;;8.93;56.43;101206.34;5059848;28;46367;-92
2021/11/25 11:11:27;;;;;;;;;55.25;43.50;;;;;8.96;56.96;101211.50;5076785;28;47369;-90
2021/11/25 11:14:29;;;;;;;;;52.75;42.75;;;;;8.95;56.29;101204.56;5061275;28;45230;-91
2021/11/25 11:17:23;;;;;;;;;57.50;44.00;;;;;9.02;57.35;101204.44;5047136;28;45260;-91
2021/11/25 11:20:13;;;;;;;;;54.25;44.50;;;;;9.04;56.70;101198.25;5060871;28;45294;-91
2021/11/25 11:22:38;;;;;;;;;51.50;39.25;;;;;9.07;57.40;101202.59;5060814;28;46061;-90